sensor_id;sensor_type;location;lat;lon;timestamp;pressure;altitude;pressure_sealevel;temperature;humidity
44144;BME280;68165;51.920;4.492;2023-04-19T00:36:08;67134.28;;;11.48;79.94
44144;BME280;68165;51.920;4.492;2023-04-19T00:38:34;67131.66;;;11.48;80.05
44144;BME280;68165;51.920;4.492;2023-04-19T00:41:00;67123.47;;;11.43;80.22
44144;BME280;68165;51.920;4.492;2023-04-19T00:43:25;67123.47;;;11.43;80.35
44144;BME280;68165;51.920;4.492;2023-04-19T00:45:51;67121.78;;;11.41;80.66
44144;BME280;68165;51.920;4.492;2023-04-19T00:48:16;67121.22;;;11.41;80.52
44144;BME280;68165;51.920;4.492;2023-04-19T00:50:42;67123.84;;;11.41;80.86
44144;BME280;68165;51.920;4.492;2023-04-19T00:53:09;67117.34;;;11.37;81.01
44144;BME280;68165;51.920;4.492;2023-04-19T00:55:35;67127.59;;;11.42;80.87
44144;BME280;68165;51.920;4.492;2023-04-19T00:58:03;67121.63;;;11.39;81.79
44144;BME280;68165;51.920;4.492;2023-04-19T01:00:30;67124.22;;;11.39;81.55
44144;BME280;68165;51.920;4.492;2023-04-19T01:02:55;67120.09;;;11.40;81.76
44144;BME280;68165;51.920;4.492;2023-04-19T01:05:21;67125.69;;;11.45;81.71
44144;BME280;68165;51.920;4.492;2023-04-19T01:07:46;67132.38;;;11.51;81.59
44144;BME280;68165;51.920;4.492;2023-04-19T01:10:12;67132.78;;;11.49;82.12
44144;BME280;68165;51.920;4.492;2023-04-19T01:25:27;67165.00;;;11.76;82.54
44144;BME280;68165;51.920;4.492;2023-04-19T01:38:16;67188.81;;;12.02;82.92
44144;BME280;68165;51.920;4.492;2023-04-19T01:45:55;67217.13;;;12.25;82.83
44144;BME280;68165;51.920;4.492;2023-04-19T01:48:20;67222.72;;;12.31;82.92
44144;BME280;68165;51.920;4.492;2023-04-19T01:50:45;67225.09;;;12.35;82.82
44144;BME280;68165;51.920;4.492;2023-04-19T02:29:23;67234.63;;;12.44;83.24
44144;BME280;68165;51.920;4.492;2023-04-19T02:31:48;67225.50;;;12.33;83.36
44144;BME280;68165;51.920;4.492;2023-04-19T02:34:14;67233.31;;;12.40;83.34
44144;BME280;68165;51.920;4.492;2023-04-19T02:36:39;67225.50;;;12.33;83.18
44144;BME280;68165;51.920;4.492;2023-04-19T03:33:23;67169.97;;;11.88;85.59
44144;BME280;68165;51.920;4.492;2023-04-19T03:46:07;67168.94;;;11.79;86.31
44144;BME280;68165;51.920;4.492;2023-04-19T03:48:33;67171.50;;;11.86;86.22
44144;BME280;68165;51.920;4.492;2023-04-19T03:50:59;67171.50;;;11.86;86.28
44144;BME280;68165;51.920;4.492;2023-04-19T03:53:25;67181.94;;;11.94;86.28
44144;BME280;68165;51.920;4.492;2023-04-19T03:55:50;67191.66;;;11.98;86.49
44144;BME280;68165;51.920;4.492;2023-04-19T03:58:16;67178.75;;;11.93;85.95
44144;BME280;68165;51.920;4.492;2023-04-19T04:00:41;67183.22;;;11.97;86.04
44144;BME280;68165;51.920;4.492;2023-04-19T04:03:06;67175.97;;;11.91;86.02
44144;BME280;68165;51.920;4.492;2023-04-19T04:05:32;67186.56;;;12.00;86.17
44144;BME280;68165;51.920;4.492;2023-04-19T04:07:57;67187.50;;;11.99;86.24
44144;BME280;68165;51.920;4.492;2023-04-19T04:10:22;67194.44;;;12.00;85.86
44144;BME280;68165;51.920;4.492;2023-04-19T04:12:48;67183.78;;;11.98;86.52
44144;BME280;68165;51.920;4.492;2023-04-19T04:15:13;67181.00;;;11.95;86.11
44144;BME280;68165;51.920;4.492;2023-04-19T04:17:38;67182.66;;;11.97;85.87
44144;BME280;68165;51.920;4.492;2023-04-19T04:20:04;67184.88;;;11.99;86.35
44144;BME280;68165;51.920;4.492;2023-04-19T04:22:29;67189.03;;;11.98;86.02
44144;BME280;68165;51.920;4.492;2023-04-19T04:24:55;67183.78;;;11.98;86.07
44144;BME280;68165;51.920;4.492;2023-04-19T04:27:22;67187.38;;;11.96;86.18
44144;BME280;68165;51.920;4.492;2023-04-19T04:29:47;67184.88;;;11.99;86.06
44144;BME280;68165;51.920;4.492;2023-04-19T04:32:13;67185.44;;;11.99;86.07
44144;BME280;68165;51.920;4.492;2023-04-19T04:34:42;67183.06;;;11.95;86.25
44144;BME280;68165;51.920;4.492;2023-04-19T04:37:07;67179.31;;;11.94;86.53
44144;BME280;68165;51.920;4.492;2023-04-19T04:39:33;67183.06;;;11.95;86.18
44144;BME280;68165;51.920;4.492;2023-04-19T04:42:03;67183.78;;;11.98;86.04
44144;BME280;68165;51.920;4.492;2023-04-19T04:44:29;67184.88;;;11.99;85.87
44144;BME280;68165;51.920;4.492;2023-04-19T04:46:54;67192.56;;;12.03;85.61
44144;BME280;68165;51.920;4.492;2023-04-19T04:49:20;67188.63;;;12.00;85.80
44144;BME280;68165;51.920;4.492;2023-04-19T04:51:45;67190.88;;;12.02;85.64
44144;BME280;68165;51.920;4.492;2023-04-19T04:54:11;67191.59;;;12.05;85.37
44144;BME280;68165;51.920;4.492;2023-04-19T04:56:36;67189.19;;;12.00;84.91
44144;BME280;68165;51.920;4.492;2023-04-19T04:59:02;67196.06;;;12.09;85.03
44144;BME280;68165;51.920;4.492;2023-04-19T05:01:27;67208.19;;;12.17;84.62
44144;BME280;68165;51.920;4.492;2023-04-19T05:11:36;67227.03;;;12.32;83.55
44144;BME280;68165;51.920;4.492;2023-04-19T05:14:02;67228.47;;;12.38;83.21
44144;BME280;68165;51.920;4.492;2023-04-19T05:16:27;67243.22;;;12.47;82.92
44144;BME280;68165;51.920;4.492;2023-04-19T05:18:52;67244.09;;;12.52;82.29
44144;BME280;68165;51.920;4.492;2023-04-19T05:21:18;67248.97;;;12.54;82.13
44144;BME280;68165;51.920;4.492;2023-04-19T05:23:43;67250.81;;;12.58;82.01
44144;BME280;68165;51.920;4.492;2023-04-19T05:26:08;67269.25;;;12.75;81.24
44144;BME280;68165;51.920;4.492;2023-04-19T05:28:37;67279.88;;;12.85;80.39
44144;BME280;68165;51.920;4.492;2023-04-19T05:31:02;67288.81;;;12.93;80.00
44144;BME280;68165;51.920;4.492;2023-04-19T05:33:28;67299.44;;;13.02;79.38
44144;BME280;68165;51.920;4.492;2023-04-19T05:35:53;67314.56;;;13.16;78.26
44144;BME280;68165;51.920;4.492;2023-04-19T05:38:18;67326.28;;;13.27;77.46
44144;BME280;68165;51.920;4.492;2023-04-19T05:40:44;67329.63;;;13.30;76.22
44144;BME280;68165;51.920;4.492;2023-04-19T05:43:09;67333.94;;;13.31;75.75
44144;BME280;68165;51.920;4.492;2023-04-19T06:01:05;67348.47;;;13.44;73.20
44144;BME280;68165;51.920;4.492;2023-04-19T06:03:31;67336.91;;;13.36;72.77
44144;BME280;68165;51.920;4.492;2023-04-19T06:06:00;67335.78;;;13.35;72.74
44144;BME280;68165;51.920;4.492;2023-04-19T06:08:25;67338.03;;;13.37;72.66
44144;BME280;68165;51.920;4.492;2023-04-19T06:10:51;67331.31;;;13.31;72.60
44144;BME280;68165;51.920;4.492;2023-04-19T06:13:18;67326.84;;;13.27;72.72
44144;BME280;68165;51.920;4.492;2023-04-19T06:15:46;67346.25;;;13.42;72.43
44144;BME280;68165;51.920;4.492;2023-04-19T06:28:32;67385.00;;;13.80;67.94
44144;BME280;68165;51.920;4.492;2023-04-19T06:30:57;67383.88;;;13.79;67.35
44144;BME280;68165;51.920;4.492;2023-04-19T06:33:23;67412.09;;;14.00;66.06
44144;BME280;68165;51.920;4.492;2023-04-19T06:35:48;67425.28;;;14.16;65.50
44144;BME280;68165;51.920;4.492;2023-04-19T06:38:14;67456.63;;;14.45;64.48
44144;BME280;68165;51.920;4.492;2023-04-19T06:40:39;67479.97;;;14.63;63.46
44144;BME280;68165;51.920;4.492;2023-04-19T07:01:11;67549.16;;;15.31;56.02
44144;BME280;68165;51.920;4.492;2023-04-19T07:39:49;67567.31;;;15.42;49.90
44144;BME280;68165;51.920;4.492;2023-04-19T07:42:14;67592.69;;;15.68;48.09
44144;BME280;68165;51.920;4.492;2023-04-19T07:44:41;67628.38;;;15.98;47.40
44144;BME280;68165;51.920;4.492;2023-04-19T07:47:06;67651.53;;;16.21;46.51
44144;BME280;68165;51.920;4.492;2023-04-19T07:49:31;67659.38;;;16.28;46.33
44144;BME280;68165;51.920;4.492;2023-04-19T07:52:01;67667.63;;;16.33;45.91
44144;BME280;68165;51.920;4.492;2023-04-19T07:54:27;67651.53;;;16.21;45.57
44144;BME280;68165;51.920;4.492;2023-04-19T07:56:52;67654.16;;;16.21;45.09
44144;BME280;68165;51.920;4.492;2023-04-19T07:59:18;67658.81;;;16.27;44.36
44144;BME280;68165;51.920;4.492;2023-04-19T08:01:43;67644.66;;;16.12;44.16
44144;BME280;68165;51.920;4.492;2023-04-19T08:04:09;67634.16;;;16.05;44.36
44144;BME280;68165;51.920;4.492;2023-04-19T08:06:35;67620.88;;;15.96;44.43
44144;BME280;68165;51.920;4.492;2023-04-19T08:09:03;67638.47;;;16.07;44.25
44144;BME280;68165;51.920;4.492;2023-04-19T08:11:28;67629.69;;;16.01;44.25
44144;BME280;68165;51.920;4.492;2023-04-19T08:13:54;67639.19;;;16.10;44.14
44144;BME280;68165;51.920;4.492;2023-04-19T08:16:20;67652.66;;;16.22;43.80
44144;BME280;68165;51.920;4.492;2023-04-19T08:18:45;67652.66;;;16.22;43.64
44144;BME280;68165;51.920;4.492;2023-04-19T08:21:10;67662.00;;;16.28;43.33
44144;BME280;68165;51.920;4.492;2023-04-19T08:23:36;67680.50;;;16.45;43.24
44144;BME280;68165;51.920;4.492;2023-04-19T08:26:01;67689.88;;;16.51;42.25
44144;BME280;68165;51.920;4.492;2023-04-19T08:28:27;67669.06;;;16.39;42.66
44144;BME280;68165;51.920;4.492;2023-04-19T08:30:53;67694.16;;;16.59;42.62
44144;BME280;68165;51.920;4.492;2023-04-19T08:33:19;67704.78;;;16.69;41.58
44144;BME280;68165;51.920;4.492;2023-04-19T08:35:44;67705.34;;;16.69;41.20
44144;BME280;68165;51.920;4.492;2023-04-19T08:38:10;67696.41;;;16.61;40.87
44144;BME280;68165;51.920;4.492;2023-04-19T08:40:42;67681.78;;;16.48;40.58
44144;BME280;68165;51.920;4.492;2023-04-19T08:43:09;67675.94;;;16.48;40.70
44144;BME280;68165;51.920;4.492;2023-04-19T08:45:35;67690.03;;;16.53;40.92
44144;BME280;68165;51.920;4.492;2023-04-19T08:48:01;67684.03;;;16.50;40.60
44144;BME280;68165;51.920;4.492;2023-04-19T08:50:28;67697.50;;;16.62;40.43
44144;BME280;68165;51.920;4.492;2023-04-19T08:52:54;67704.22;;;16.68;40.27
44144;BME280;68165;51.920;4.492;2023-04-19T08:55:20;67716.81;;;16.75;40.37
44144;BME280;68165;51.920;4.492;2023-04-19T08:57:45;67716.03;;;16.79;40.00
44144;BME280;68165;51.920;4.492;2023-04-19T09:00:11;67706.88;;;16.68;38.89
44144;BME280;68165;51.920;4.492;2023-04-19T09:02:44;67713.22;;;16.77;38.59
44144;BME280;68165;51.920;4.492;2023-04-19T09:05:12;67729.31;;;16.89;39.00
44144;BME280;68165;51.920;4.492;2023-04-19T09:07:38;67769.28;;;17.27;38.85
44144;BME280;68165;51.920;4.492;2023-04-19T09:12:32;67862.47;;;18.11;37.22
44144;BME280;68165;51.920;4.492;2023-04-19T09:14:59;67885.72;;;18.27;35.81
44144;BME280;68165;51.920;4.492;2023-04-19T09:17:25;67866.94;;;18.15;35.76
44144;BME280;68165;51.920;4.492;2023-04-19T09:19:50;67850.09;;;18.00;36.02
44144;BME280;68165;51.920;4.492;2023-04-19T09:22:16;67842.25;;;17.93;36.23
44144;BME280;68165;51.920;4.492;2023-04-19T09:24:42;67817.41;;;17.68;36.38
44144;BME280;68165;51.920;4.492;2023-04-19T09:27:07;67820.38;;;17.73;36.21
44144;BME280;68165;51.920;4.492;2023-04-19T09:29:36;67838.88;;;17.90;35.88
44144;BME280;68165;51.920;4.492;2023-04-19T09:32:01;67837.75;;;17.89;35.86
44144;BME280;68165;51.920;4.492;2023-04-19T09:34:28;67835.34;;;17.84;35.45
44144;BME280;68165;51.920;4.492;2023-04-19T09:36:54;67848.44;;;17.99;35.25
44144;BME280;68165;51.920;4.492;2023-04-19T09:39:31;67870.28;;;18.18;35.05
44144;BME280;68165;51.920;4.492;2023-04-19T09:41:56;67873.13;;;18.21;34.79
44144;BME280;68165;51.920;4.492;2023-04-19T09:44:22;67877.03;;;18.24;34.18
44144;BME280;68165;51.920;4.492;2023-04-19T09:51:56;67859.34;;;18.04;33.59
44144;BME280;68165;51.920;4.492;2023-04-19T09:54:23;67817.53;;;17.71;32.04
44144;BME280;68165;51.920;4.492;2023-04-19T09:56:50;67799.56;;;17.54;31.57
44144;BME280;68165;51.920;4.492;2023-04-19T09:59:17;67768.56;;;17.24;31.89
44144;BME280;68165;51.920;4.492;2023-04-19T10:01:48;67769.69;;;17.25;32.60
44144;BME280;68165;51.920;4.492;2023-04-19T10:32:44;67855.72;;;18.05;28.52
44144;BME280;68165;51.920;4.492;2023-04-19T10:35:43;67852.34;;;18.02;28.61
44144;BME280;68165;51.920;4.492;2023-04-19T10:38:14;67858.50;;;18.08;28.43
44144;BME280;68165;51.920;4.492;2023-04-19T10:40:54;67863.41;;;18.10;27.85
44144;BME280;68165;51.920;4.492;2023-04-19T10:45:51;67879.69;;;18.24;28.21
44144;BME280;68165;51.920;4.492;2023-04-19T10:51:34;67896.53;;;18.40;26.88
44144;BME280;68165;51.920;4.492;2023-04-19T10:56:57;67867.91;;;18.14;26.14
44144;BME280;68165;51.920;4.492;2023-04-19T10:59:28;67855.56;;;18.03;26.23
44144;BME280;68165;51.920;4.492;2023-04-19T11:02:05;67860.59;;;18.07;26.28
44144;BME280;68165;51.920;4.492;2023-04-19T11:07:16;67856.13;;;18.03;26.75
44144;BME280;68165;51.920;4.492;2023-04-19T11:09:47;67849.38;;;17.97;26.73
44144;BME280;68165;51.920;4.492;2023-04-19T11:12:15;67852.91;;;18.03;27.06
44144;BME280;68165;51.920;4.492;2023-04-19T11:17:20;67874.63;;;18.20;27.04
44144;BME280;68165;51.920;4.492;2023-04-19T11:20:08;67896.53;;;18.40;26.72
44144;BME280;68165;51.920;4.492;2023-04-19T11:25:12;67898.38;;;18.44;26.24
44144;BME280;68165;51.920;4.492;2023-04-19T11:27:39;67885.72;;;18.27;26.80
44144;BME280;68165;51.920;4.492;2023-04-19T11:30:07;67867.34;;;18.13;27.08
44144;BME280;68165;51.920;4.492;2023-04-19T11:32:33;67870.72;;;18.16;27.65
44144;BME280;68165;51.920;4.492;2023-04-19T11:35:06;67868.88;;;18.12;27.69
44144;BME280;68165;51.920;4.492;2023-04-19T11:37:34;67878.72;;;18.26;27.93
44144;BME280;68165;51.920;4.492;2023-04-19T11:40:00;67881.13;;;18.30;27.48
44144;BME280;68165;51.920;4.492;2023-04-19T11:42:28;67896.94;;;18.38;27.40
44144;BME280;68165;51.920;4.492;2023-04-19T11:44:54;67914.13;;;18.58;27.07
44144;BME280;68165;51.920;4.492;2023-04-19T11:47:21;67907.19;;;18.49;27.22
44144;BME280;68165;51.920;4.492;2023-04-19T11:49:47;67925.44;;;18.61;27.78
44144;BME280;68165;51.920;4.492;2023-04-19T11:52:19;67919.00;;;18.60;27.22
44144;BME280;68165;51.920;4.492;2023-04-19T11:54:45;67910.75;;;18.55;26.94
44144;BME280;68165;51.920;4.492;2023-04-19T11:57:10;67894.28;;;18.38;26.97
44144;BME280;68165;51.920;4.492;2023-04-19T11:59:36;67880.41;;;18.27;27.34
44144;BME280;68165;51.920;4.492;2023-04-19T12:02:09;67883.47;;;18.25;27.41
44144;BME280;68165;51.920;4.492;2023-04-19T12:04:35;67883.78;;;18.30;26.79
44144;BME280;68165;51.920;4.492;2023-04-19T12:07:02;67859.06;;;18.08;26.95
44144;BME280;68165;51.920;4.492;2023-04-19T12:09:28;67857.25;;;18.04;27.17
44144;BME280;68165;51.920;4.492;2023-04-19T12:11:54;67844.47;;;17.95;27.12
44144;BME280;68165;51.920;4.492;2023-04-19T12:14:21;67857.25;;;18.04;27.08
44144;BME280;68165;51.920;4.492;2023-04-19T12:17:10;67864.69;;;18.13;26.97
44144;BME280;68165;51.920;4.492;2023-04-19T12:19:41;67874.81;;;18.22;26.97
44144;BME280;68165;51.920;4.492;2023-04-19T12:22:08;67874.25;;;18.22;27.04
44144;BME280;68165;51.920;4.492;2023-04-19T12:24:33;67884.91;;;18.31;27.10
44144;BME280;68165;51.920;4.492;2023-04-19T12:26:59;67876.47;;;18.24;26.95
44144;BME280;68165;51.920;4.492;2023-04-19T12:29:25;67886.03;;;18.32;27.23
44144;BME280;68165;51.920;4.492;2023-04-19T12:31:51;67902.16;;;18.45;27.29
44144;BME280;68165;51.920;4.492;2023-04-19T12:34:16;67909.78;;;18.56;27.05
44144;BME280;68165;51.920;4.492;2023-04-19T12:36:41;67913.97;;;18.55;26.69
44144;BME280;68165;51.920;4.492;2023-04-19T12:39:07;67926.16;;;18.64;26.11
44144;BME280;68165;51.920;4.492;2023-04-19T12:41:32;67921.66;;;18.60;25.85
44144;BME280;68165;51.920;4.492;2023-04-19T12:43:58;67911.47;;;18.58;25.37
44144;BME280;68165;51.920;4.492;2023-04-19T12:46:23;67898.22;;;18.41;24.88
44144;BME280;68165;51.920;4.492;2023-04-19T12:48:48;67912.25;;;18.54;24.51
44144;BME280;68165;51.920;4.492;2023-04-19T12:51:14;67909.59;;;18.54;25.27
44144;BME280;68165;51.920;4.492;2023-04-19T12:53:41;67907.50;;;18.54;25.70
44144;BME280;68165;51.920;4.492;2023-04-19T12:56:11;67892.91;;;18.41;26.05
44144;BME280;68165;51.920;4.492;2023-04-19T12:58:36;67896.94;;;18.38;25.83
44144;BME280;68165;51.920;4.492;2023-04-19T13:01:02;67902.28;;;18.47;25.79
44144;BME280;68165;51.920;4.492;2023-04-19T13:03:27;67904.81;;;18.45;25.26
44144;BME280;68165;51.920;4.492;2023-04-19T13:05:57;67902.72;;;18.45;24.85
44144;BME280;68165;51.920;4.492;2023-04-19T13:08:22;67897.66;;;18.41;24.41
44144;BME280;68165;51.920;4.492;2023-04-19T13:10:47;67891.22;;;18.40;24.46
44144;BME280;68165;51.920;4.492;2023-04-19T13:13:13;67898.38;;;18.44;24.88
44144;BME280;68165;51.920;4.492;2023-04-19T13:15:38;67890.50;;;18.36;25.21
44144;BME280;68165;51.920;4.492;2023-04-19T13:18:06;67875.91;;;18.23;25.25
44144;BME280;68165;51.920;4.492;2023-04-19T13:20:31;67878.16;;;18.25;25.08
44144;BME280;68165;51.920;4.492;2023-04-19T13:22:56;67883.06;;;18.27;24.95
44144;BME280;68165;51.920;4.492;2023-04-19T13:25:22;67891.63;;;18.38;25.35
44144;BME280;68165;51.920;4.492;2023-04-19T13:27:47;67908.72;;;18.48;25.40
44144;BME280;68165;51.920;4.492;2023-04-19T13:30:13;67920.84;;;18.64;24.59
44144;BME280;68165;51.920;4.492;2023-04-19T13:32:38;67910.16;;;18.54;23.83
44144;BME280;68165;51.920;4.492;2023-04-19T13:35:04;67912.09;;;18.51;23.91
44144;BME280;68165;51.920;4.492;2023-04-19T13:37:29;67913.78;;;18.53;23.94
44144;BME280;68165;51.920;4.492;2023-04-19T13:39:55;67907.75;;;18.50;23.52
44144;BME280;68165;51.920;4.492;2023-04-19T13:42:20;67909.28;;;18.49;24.04
44144;BME280;68165;51.920;4.492;2023-04-19T13:44:48;67920.28;;;18.63;23.80
44144;BME280;68165;51.920;4.492;2023-04-19T13:47:13;67913.56;;;18.57;22.76
44144;BME280;68165;51.920;4.492;2023-04-19T13:49:39;67908.72;;;18.48;22.52
44144;BME280;68165;51.920;4.492;2023-04-19T13:52:05;67910.25;;;18.47;22.79
44144;BME280;68165;51.920;4.492;2023-04-19T13:54:30;67905.09;;;18.50;22.78
44144;BME280;68165;51.920;4.492;2023-04-19T13:56:56;67900.63;;;18.46;22.83
44144;BME280;68165;51.920;4.492;2023-04-19T13:59:22;67912.81;;;18.54;22.43
44144;BME280;68165;51.920;4.492;2023-04-19T14:01:50;67913.22;;;18.52;22.49
44144;BME280;68165;51.920;4.492;2023-04-19T14:04:15;67909.22;;;18.56;22.62
44144;BME280;68165;51.920;4.492;2023-04-19T14:06:41;67915.47;;;18.54;23.02
44144;BME280;68165;51.920;4.492;2023-04-19T14:09:07;67898.63;;;18.39;23.20
44144;BME280;68165;51.920;4.492;2023-04-19T14:11:32;67890.94;;;18.34;23.50
44144;BME280;68165;51.920;4.492;2023-04-19T14:13:57;67889.38;;;18.35;23.73
44144;BME280;68165;51.920;4.492;2023-04-19T14:16:23;67902.41;;;18.40;23.99
44144;BME280;68165;51.920;4.492;2023-04-19T14:18:49;67892.19;;;18.38;24.43
44144;BME280;68165;51.920;4.492;2023-04-19T14:21:15;67888.84;;;18.35;24.98
44144;BME280;68165;51.920;4.492;2023-04-19T14:23:40;67893.59;;;18.34;25.45
44144;BME280;68165;51.920;4.492;2023-04-19T14:26:06;67887.72;;;18.34;25.60
44144;BME280;68165;51.920;4.492;2023-04-19T14:28:32;67894.28;;;18.38;25.35
44144;BME280;68165;51.920;4.492;2023-04-19T14:30:57;67880.25;;;18.25;25.95
44144;BME280;68165;51.920;4.492;2023-04-19T14:33:22;67880.81;;;18.25;26.31
44144;BME280;68165;51.920;4.492;2023-04-19T14:35:49;67873.38;;;18.16;26.29
44144;BME280;68165;51.920;4.492;2023-04-19T14:38:15;67864.69;;;18.13;26.44
44144;BME280;68165;51.920;4.492;2023-04-19T14:40:40;67858.91;;;18.06;26.46
44144;BME280;68165;51.920;4.492;2023-04-19T14:43:05;67860.78;;;18.10;26.79
44144;BME280;68165;51.920;4.492;2023-04-19T14:45:31;67859.47;;;18.06;26.84
44144;BME280;68165;51.920;4.492;2023-04-19T14:47:56;67864.38;;;18.08;26.61
44144;BME280;68165;51.920;4.492;2023-04-19T14:50:22;67847.69;;;17.95;26.60
44144;BME280;68165;51.920;4.492;2023-04-19T14:52:47;67839.84;;;17.88;26.50
44144;BME280;68165;51.920;4.492;2023-04-19T14:55:12;67835.34;;;17.84;26.39
44144;BME280;68165;51.920;4.492;2023-04-19T14:57:38;67838.56;;;17.85;26.84
44144;BME280;68165;51.920;4.492;2023-04-19T15:00:04;67835.34;;;17.84;26.74
44144;BME280;68165;51.920;4.492;2023-04-19T15:02:29;67843.06;;;17.89;26.69
44144;BME280;68165;51.920;4.492;2023-04-19T15:04:55;67833.81;;;17.85;26.66
44144;BME280;68165;51.920;4.492;2023-04-19T15:07:20;67834.09;;;17.81;26.69
44144;BME280;68165;51.920;4.492;2023-04-19T15:09:46;67838.00;;;17.84;26.71
44144;BME280;68165;51.920;4.492;2023-04-19T15:12:11;67836.31;;;17.83;26.17
44144;BME280;68165;51.920;4.492;2023-04-19T15:14:38;67831.00;;;17.83;26.19
44144;BME280;68165;51.920;4.492;2023-04-19T15:17:04;67832.97;;;17.80;26.16
44144;BME280;68165;51.920;4.492;2023-04-19T15:19:29;67825.97;;;17.78;26.19
44144;BME280;68165;51.920;4.492;2023-04-19T15:21:55;67817.84;;;17.76;26.34
44144;BME280;68165;51.920;4.492;2023-04-19T15:24:20;67830.72;;;17.78;26.34
44144;BME280;68165;51.920;4.492;2023-04-19T15:26:46;67826.22;;;17.74;26.24
44144;BME280;68165;51.920;4.492;2023-04-19T15:29:11;67829.19;;;17.79;26.43
44144;BME280;68165;51.920;4.492;2023-04-19T15:31:37;67822.44;;;17.73;26.48
44144;BME280;68165;51.920;4.492;2023-04-19T15:34:02;67822.06;;;17.75;25.87
44144;BME280;68165;51.920;4.492;2023-04-19T15:36:28;67812.34;;;17.64;26.37
44144;BME280;68165;51.920;4.492;2023-04-19T15:38:53;67805.59;;;17.58;26.13
44144;BME280;68165;51.920;4.492;2023-04-19T15:41:19;67806.72;;;17.59;26.38
44144;BME280;68165;51.920;4.492;2023-04-19T15:43:44;67808.59;;;17.63;26.80
44144;BME280;68165;51.920;4.492;2023-04-19T15:46:13;67815.31;;;17.69;27.44
44144;BME280;68165;51.920;4.492;2023-04-19T15:48:39;67809.53;;;17.61;28.50
44144;BME280;68165;51.920;4.492;2023-04-19T15:51:04;67816.53;;;17.63;29.12
44144;BME280;68165;51.920;4.492;2023-04-19T15:53:31;67811.78;;;17.63;29.36
44144;BME280;68165;51.920;4.492;2023-04-19T15:55:56;67810.09;;;17.62;29.37
44144;BME280;68165;51.920;4.492;2023-04-19T15:58:22;67801.09;;;17.53;29.28
44144;BME280;68165;51.920;4.492;2023-04-19T16:00:48;67795.09;;;17.50;29.79
44144;BME280;68165;51.920;4.492;2023-04-19T16:03:14;67791.72;;;17.47;29.93
44144;BME280;68165;51.920;4.492;2023-04-19T16:05:39;67785.56;;;17.42;30.52
44144;BME280;68165;51.920;4.492;2023-04-19T16:08:09;67781.06;;;17.38;31.50
44144;BME280;68165;51.920;4.492;2023-04-19T16:10:36;67785.94;;;17.40;31.80
44144;BME280;68165;51.920;4.492;2023-04-19T16:13:02;67775.69;;;17.28;32.15
44144;BME280;68165;51.920;4.492;2023-04-19T16:15:28;67783.88;;;17.40;32.44
44144;BME280;68165;51.920;4.492;2023-04-19T16:17:54;67781.47;;;17.36;32.87
44144;BME280;68165;51.920;4.492;2023-04-19T16:20:19;67774.34;;;17.32;33.13
44144;BME280;68165;51.920;4.492;2023-04-19T16:22:45;67770.81;;;17.26;33.56
44144;BME280;68165;51.920;4.492;2023-04-19T16:25:11;67767.03;;;17.25;33.02
44144;BME280;68165;51.920;4.492;2023-04-19T16:27:40;67751.91;;;17.11;32.52
44144;BME280;68165;51.920;4.492;2023-04-19T16:30:09;67754.53;;;17.11;33.02
44144;BME280;68165;51.920;4.492;2023-04-19T16:32:35;67754.41;;;17.09;33.06
44144;BME280;68165;51.920;4.492;2023-04-19T16:35:01;67757.75;;;17.12;32.17
44144;BME280;68165;51.920;4.492;2023-04-19T16:37:26;67760.72;;;17.17;32.55
44144;BME280;68165;51.920;4.492;2023-04-19T16:39:51;67762.97;;;17.19;32.77
44144;BME280;68165;51.920;4.492;2023-04-19T16:42:17;67757.75;;;17.12;33.62
44144;BME280;68165;51.920;4.492;2023-04-19T16:44:42;67748.22;;;17.03;34.30
44144;BME280;68165;51.920;4.492;2023-04-19T16:47:07;67744.47;;;17.02;34.70
44144;BME280;68165;51.920;4.492;2023-04-19T16:49:33;67740.69;;;17.01;35.17
44144;BME280;68165;51.920;4.492;2023-04-19T16:51:58;67739.00;;;17.00;35.11
44144;BME280;68165;51.920;4.492;2023-04-19T16:54:23;67725.53;;;16.88;34.83
44144;BME280;68165;51.920;4.492;2023-04-19T16:56:49;67732.69;;;16.92;34.84
44144;BME280;68165;51.920;4.492;2023-04-19T16:59:14;67718.25;;;16.81;35.47
44144;BME280;68165;51.920;4.492;2023-04-19T17:01:39;67710.97;;;16.74;36.55
44144;BME280;68165;51.920;4.492;2023-04-19T17:04:05;67710.09;;;16.69;37.68
44144;BME280;68165;51.920;4.492;2023-04-19T17:06:30;67703.13;;;16.67;38.53
44144;BME280;68165;51.920;4.492;2023-04-19T17:08:57;67699.75;;;16.64;39.05
44144;BME280;68165;51.920;4.492;2023-04-19T17:11:22;67701.44;;;16.66;39.74
44144;BME280;68165;51.920;4.492;2023-04-19T17:13:47;67692.63;;;16.60;40.06
44144;BME280;68165;51.920;4.492;2023-04-19T17:16:13;67692.28;;;16.55;40.35
44144;BME280;68165;51.920;4.492;2023-04-19T17:18:38;67686.53;;;16.48;40.59
44144;BME280;68165;51.920;4.492;2023-04-19T17:21:03;67681.06;;;16.45;41.63
44144;BME280;68165;51.920;4.492;2023-04-19T17:23:29;67671.13;;;16.39;42.32
44144;BME280;68165;51.920;4.492;2023-04-19T17:25:54;67667.94;;;16.38;42.69
44144;BME280;68165;51.920;4.492;2023-04-19T17:28:20;67673.63;;;16.36;42.97
44144;BME280;68165;51.920;4.492;2023-04-19T17:30:45;67664.25;;;16.30;43.59
44144;BME280;68165;51.920;4.492;2023-04-19T17:33:10;67659.22;;;16.25;44.04
44144;BME280;68165;51.920;4.492;2023-04-19T17:35:36;67660.19;;;16.24;44.60
44144;BME280;68165;51.920;4.492;2023-04-19T17:38:01;67654.56;;;16.19;44.90
44144;BME280;68165;51.920;4.492;2023-04-19T17:40:26;67639.59;;;16.08;46.03
44144;BME280;68165;51.920;4.492;2023-04-19T17:42:52;67624.63;;;15.97;46.63
44144;BME280;68165;51.920;4.492;2023-04-19T17:45:17;67618.63;;;15.93;47.04
44144;BME280;68165;51.920;4.492;2023-04-19T17:47:42;67617.19;;;15.87;47.50
44144;BME280;68165;51.920;4.492;2023-04-19T17:50:10;67615.09;;;15.88;47.25
44144;BME280;68165;51.920;4.492;2023-04-19T17:52:36;67608.22;;;15.79;47.38
44144;BME280;68165;51.920;4.492;2023-04-19T17:55:01;67606.38;;;15.75;47.44
44144;BME280;68165;51.920;4.492;2023-04-19T17:57:29;67594.78;;;15.67;48.12
44144;BME280;68165;51.920;4.492;2023-04-19T17:59:54;67590.16;;;15.61;48.58